Latest Coastal Weather Observations for Port Augusta

IDS60701

Issued at 7:41 am CDT Sunday 19 November 2017 (issued every 10 minutes, with the page automatically refreshed every 10 minutes)

About coastal observations | Map of coastal stations | Coastal observations for SA | Marine services | Other Formats
Station Details ID: 018201 Name: PORT AUGUSTA AERO Lat: -32.51 Lon: 137.72 Height: 13.97 m
Data from the previous 72 hours. | See also: Recent months at Port Augusta
Date/Time
CDT
Temp
°C
Wind Pressure Rain since
9am
mm
Weather Cloud Vis
km
Sea
Height
m
Swell
Dir  Spd
kts
Gust
kts
hPa Trend Height
m
Period
s
Dir
19/07:30am 22.5 SE 5 7 1012.7 - 0.0 - Clear 10 - - - -
19/07:00am 20.9 SE 7 9 1012.4 - 0.0 - - 10 - - - -
19/06:30am 18.4 SE 7 9 1012.0 - 0.0 - - 10 - - - -
19/06:00am 17.7 ESE 7 9 1011.6 - 0.0 - - 10 - - - -
19/05:30am 17.3 ESE 8 9 1011.6 - 0.0 - - 10 - - - -
19/05:00am 18.4 SE 8 11 1011.5 - 0.0 - - 10 - - - -
19/04:30am 18.5 ESE 9 11 1011.6 - 0.0 - - 10 - - - -
19/04:00am 18.7 ESE 8 9 1011.9 - 0.0 - - 10 - - - -
19/03:30am 19.0 SE 7 8 1011.8 - 0.0 - - 10 - - - -
19/03:00am 19.6 ESE 7 8 1011.9 - 0.0 - - 10 - - - -
19/02:30am 20.1 ESE 6 8 1012.0 - 0.0 - - 10 - - - -
19/02:00am 19.7 SE 7 11 1011.7 - 0.0 - - 10 - - - -
19/01:30am 19.4 SE 7 10 1011.9 - 0.0 - - 10 - - - -
19/01:00am 19.9 SE 8 10 1012.2 - 0.0 - - 10 - - - -
19/12:30am 20.3 SE 7 9 1012.5 - 0.0 - - 10 - - - -
19/12:00am 20.9 SE 7 10 1013.0 - 0.0 - - 10 - - - -
 
Date/Time
CDT
Temp
°C
Wind Pressure Rain since
9am
mm
Weather Cloud Vis
km
Sea
Height
m
Swell
Dir  Spd
kts
Gust
kts
hPa Trend Height
m
Period
s
Dir
18/11:30pm 21.3 SE 10 12 1013.2 - 0.0 - - 10 - - - -
18/11:00pm 21.2 SSE 13 16 1012.7 - 0.0 - - 10 - - - -
18/10:30pm 21.0 SE 11 16 1012.7 - 0.0 - - 10 - - - -
18/10:00pm 20.3 SE 12 15 1012.7 - 0.0 - - 10 - - - -
18/09:30pm 20.2 SE 10 15 1012.5 - 0.0 - - 10 - - - -
18/09:00pm 20.2 SE 13 18 1012.2 - 0.0 - - 10 - - - -
18/08:30pm 20.6 SE 10 17 1012.0 - 0.0 - - 10 - - - -
18/08:00pm 21.5 SE 15 20 1011.8 - 0.0 - - 10 - - - -
18/07:30pm 22.6 SE 13 18 1011.6 - 0.0 - - 10 - - - -
18/07:00pm 24.1 SE 13 19 1011.6 - 0.0 - - 10 - - - -
18/06:30pm 25.7 SE 16 19 1011.5 - 0.0 - - 10 - - - -
18/06:00pm 26.3 SE 15 18 1011.3 - 0.0 - - 10 - - - -
18/05:30pm 27.4 SE 15 19 1011.3 - 0.0 - - 10 - - - -
18/05:00pm 27.2 SE 16 21 1011.4 - 0.0 - - 10 - - - -
18/04:30pm 27.9 SE 15 20 1011.5 - 0.0 - - 10 - - - -
18/04:00pm 27.2 SE 16 20 1011.6 - 0.0 - - 10 - - - -
18/03:30pm 26.8 SE 17 23 1012.0 - 0.0 - - 10 - - - -
18/03:00pm 27.2 SE 16 21 1012.3 - 0.0 - - 10 - - - -
18/02:30pm 26.9 SE 14 19 1012.8 - 0.0 - - 10 - - - -
18/02:00pm 26.1 SE 14 18 1013.1 - 0.0 - - 10 - - - -
18/01:30pm 25.7 ESE 13 17 1013.3 - 0.0 - - 10 - - - -
18/01:00pm 24.2 SE 13 17 1013.6 - 0.0 - - 10 - - - -
18/12:30pm 23.4 SE 14 19 1013.9 - 0.0 - - 10 - - - -
18/12:00pm 23.6 SE 14 18 1014.2 - 0.0 - - 10 - - - -
18/11:30am 23.0 SE 14 17 1014.7 - 0.0 - - 10 - - - -
18/11:00am 22.2 ESE 13 18 1014.9 - 0.0 - - 10 - - - -
18/10:30am 22.0 ESE 10 14 1015.2 - 0.0 - - 10 - - - -
18/10:00am 21.2 SSE 9 14 1015.4 - 0.0 - - 10 - - - -
18/09:30am 19.8 SSE 11 15 1015.2 - 0.0 - - 10 - - - -
18/09:00am 19.1 SSE 11 15 1015.3 - 0.0 - - 10 - - - -
18/08:30am 18.5 SE 11 15 1015.1 - 0.0 - - 10 - - - -
18/08:00am 18.3 SE 11 16 1015.0 - 0.0 - - 10 - - - -
18/07:30am 17.2 SE 5 9 1014.8 - 0.0 - - 10 - - - -
18/07:00am 15.3 SSE 4 6 1014.9 - 0.0 - - 10 - - - -
18/06:30am 13.4 SSE 5 6 1014.7 - 0.0 - - 10 - - - -
18/06:00am 12.9 CALM 0 3 1014.4 - 0.0 - - 10 - - - -
18/05:46am 13.6 ESE 3 4 1014.2 - 0.0 - Partly cloudy 10 - - - -
18/05:32am 13.1 E 5 5 1013.9 - 0.0 - Partly cloudy 10 - - - -
18/05:30am 13.2 E 5 5 1013.9 - 0.0 - Partly cloudy 10 - - - -
18/05:00am 14.4 SE 5 6 1013.8 - 0.0 - - 10 - - - -
18/04:30am 14.1 SE 4 6 1013.8 - 0.0 - - 10 - - - -
18/04:00am 14.8 SSE 8 9 1013.7 - 0.0 - - 10 - - - -
18/03:30am 15.4 SE 7 8 1013.9 - 0.0 - - 10 - - - -
18/03:00am 15.8 SE 9 10 1014.0 - 0.0 - - 10 - - - -
18/02:33am 16.1 SE 7 9 1014.1 - 0.0 - Partly cloudy 10 - - - -
18/02:30am 16.1 SE 8 10 1014.1 - 0.0 - Partly cloudy 10 - - - -
18/02:00am 17.1 SE 8 11 1014.2 - 0.0 - Cloudy 10 - - - -
18/01:32am 17.3 SE 9 12 1014.4 - 0.0 - Partly cloudy 10 - - - -
18/01:30am 17.3 SSE 9 12 1014.4 - 0.0 - Partly cloudy 10 - - - -
18/01:27am 17.3 SSE 9 11 1014.5 - 0.0 - Partly cloudy 10 - - - -
18/01:00am 16.9 SSE 11 14 1014.9 - 0.0 - Partly cloudy 10 - - - -
18/12:30am 17.1 SSE 13 17 1014.9 - 0.0 - Partly cloudy 10 - - - -
18/12:00am 17.0 SSE 13 17 1015.0 - 0.0 - Mostly cloudy 10 - - - -
 
Date/Time
CDT
Temp
°C
Wind Pressure Rain since
9am
mm
Weather Cloud Vis
km
Sea
Height
m
Swell
Dir  Spd
kts
Gust
kts
hPa Trend Height
m
Period
s
Dir
17/11:30pm 17.0 SSE 10 12 1015.3 - 0.0 - Cloudy 10 - - - -
17/11:28pm 17.0 SSE 10 12 1015.3 - 0.0 - Cloudy 10 - - - -
17/11:00pm 16.8 SSE 8 13 1015.5 - 0.0 - Cloudy 10 - - - -
17/10:30pm 16.8 S 7 10 1015.8 - 0.0 - Partly cloudy 10 - - - -
17/10:00pm 16.8 S 11 15 1015.4 - 0.0 - - 10 - - - -
17/09:30pm 17.0 S 10 13 1015.1 - 0.0 - - 10 - - - -
17/09:00pm 16.9 SSE 11 15 1014.9 - 0.0 - - 10 - - - -
17/08:30pm 17.1 SSE 13 17 1014.7 - 0.0 - - 10 - - - -
17/08:00pm 17.7 SE 13 19 1014.3 - 0.0 - - 10 - - - -
17/07:30pm 18.3 SE 17 25 1013.9 - 0.0 - - 10 - - - -
17/07:00pm 18.8 SE 19 25 1013.7 - 0.0 - - 10 - - - -
17/06:30pm 19.0 SSE 21 27 1013.4 - 0.0 - - 10 - - - -
17/06:00pm 19.8 SSE 20 27 1013.3 - 0.0 - - 10 - - - -
17/05:30pm 19.8 SE 20 26 1013.3 - 0.0 - - 10 - - - -
17/05:00pm 20.1 SE 22 28 1013.1 - 0.0 - - 10 - - - -
17/04:30pm 20.5 SE 20 27 1013.2 - 0.0 - - 10 - - - -
17/04:00pm 20.3 SE 21 27 1013.3 - 0.0 - - 10 - - - -
17/03:30pm 20.9 SE 21 28 1013.4 - 0.0 - - 10 - - - -
17/03:00pm 21.5 SE 20 25 1013.7 - 0.0 - - 10 - - - -
17/02:30pm 21.3 SE 17 23 1014.2 - 0.0 - - 10 - - - -
17/02:00pm 21.5 SE 16 20 1014.5 - 0.0 - - 10 - - - -
17/01:30pm 20.5 SE 16 21 1014.8 - 0.0 - - 10 - - - -
17/01:00pm 20.2 SE 15 19 1015.2 - 0.0 - - 10 - - - -
17/12:30pm 20.2 SE 13 19 1015.6 - 0.0 - - 10 - - - -
17/12:00pm 19.8 SE 12 17 1015.8 - 0.0 - - 10 - - - -
17/11:30am 19.0 SE 12 17 1016.2 - 0.0 - - 10 - - - -
17/11:00am 19.0 SE 10 15 1016.4 - 0.0 - - 10 - - - -
17/10:30am 19.3 SE 10 15 1016.5 - 0.0 - - 10 - - - -
17/10:00am 18.3 ESE 11 15 1016.6 - 0.0 - - 10 - - - -
17/09:30am 18.1 SSE 9 13 1016.9 - 0.0 - - 10 - - - -
17/09:00am 18.0 SSE 9 15 1017.0 - 0.0 - - 10 - - - -
17/08:30am 16.6 SSW 12 15 1016.8 - 0.0 - - 10 - - - -
17/08:00am 16.2 S 11 15 1016.5 - 0.0 - - 10 - - - -
17/07:30am 15.2 SSW 10 12 1016.2 - 0.0 - - 10 - - - -
17/07:00am 13.9 SSW 10 13 1016.0 - 0.0 - - 10 - - - -
17/06:30am 11.9 S 8 9 1015.9 - 0.0 - - 10 - - - -
17/06:00am 12.7 S 10 13 1015.5 - 0.0 - - 10 - - - -
17/05:30am 12.2 S 7 9 1015.5 - 0.0 - - 10 - - - -
17/05:00am 12.9 SSE 9 10 1015.5 - 0.0 - - 10 - - - -
17/04:30am 13.4 SSE 10 13 1015.5 - 0.0 - - 10 - - - -
17/04:00am 13.8 SSE 10 12 1015.8 - 0.0 - Partly cloudy 10 - - - -
17/03:30am 14.4 SSE 9 13 1016.0 - 0.0 - Cloudy 10 - - - -
17/03:00am 14.7 SE 9 12 1016.2 - 0.0 - Cloudy 10 - - - -
17/02:30am 14.8 SE 8 11 1016.4 - 0.0 - Cloudy 10 - - - -
17/02:00am 14.7 SE 8 11 1016.5 - 0.0 - Cloudy 10 - - - -
17/01:30am 15.2 SE 9 13 1016.8 - 0.0 - Cloudy 10 - - - -
17/01:00am 15.3 SE 12 16 1016.8 - 0.0 - Cloudy 10 - - - -
17/12:30am 15.7 SE 13 18 1017.1 - 0.0 - Cloudy 10 - - - -
17/12:00am 15.2 SSW 10 13 1017.3 - 0.0 - Cloudy 10 - - - -
 
Date/Time
CDT
Temp
°C
Wind Pressure Rain since
9am
mm
Weather Cloud Vis
km
Sea
Height
m
Swell
Dir  Spd
kts
Gust
kts
hPa Trend Height
m
Period
s
Dir
16/11:30pm 14.4 SSW 10 13 1017.2 - 0.0 - - 10 - - - -
16/11:00pm 14.7 SSW 11 15 1017.2 - 0.0 - - 10 - - - -
16/10:30pm 15.0 SSW 11 15 1017.4 - 0.0 - - 10 - - - -
16/10:00pm 15.5 S 14 19 1017.3 - 0.0 - - 10 - - - -
16/09:30pm 15.8 S 16 22 1016.9 - 0.0 - - 10 - - - -
16/09:00pm 16.3 S 16 20 1016.6 - 0.0 - - 10 - - - -
16/08:30pm 16.7 SSE 17 22 1016.2 - 0.0 - - 10 - - - -
16/08:00pm 17.8 SSE 15 18 1016.1 - 0.0 - - 10 - - - -
16/07:30pm 18.6 SE 15 20 1015.9 - 0.0 - - 10 - - - -
16/07:00pm 19.2 SE 16 21 1015.6 - 0.0 - - 10 - - - -
16/06:30pm 19.9 ESE 18 24 1015.3 - 0.0 - - 10 - - - -
16/06:00pm 20.1 ESE 17 24 1015.1 - 0.0 - Mostly clear 10 - - - -
16/05:30pm 20.5 ESE 16 21 1015.2 - 0.0 - Partly cloudy 10 - - - -
16/05:00pm 20.8 ESE 16 22 1015.0 - 0.0 - - 10 - - - -
16/04:30pm 20.5 ESE 17 23 1015.0 - 0.0 - - 10 - - - -
16/04:21pm 21.3 ESE 18 28 1015.0 - 0.0 - - 10 - - - -
16/04:00pm 20.7 ESE 19 26 1014.9 - 0.0 - - 10 - - - -
16/03:36pm 21.6 ESE 18 31 1014.9 - 0.0 - - 10 - - - -
16/03:30pm 22.0 SE 16 24 1015.2 - 0.0 - - 10 - - - -
16/03:03pm 21.8 SSE 14 31 1015.7 - 0.0 - Partly cloudy 10 - - - -
16/03:00pm 21.2 SSE 13 21 1015.9 - 0.0 - Mostly clear 10 - - - -
16/02:38pm 22.8 SSE 14 28 1016.1 - 0.0 - - 10 - - - -
16/02:30pm 21.7 SSE 14 21 1016.4 - 0.0 - - 10 - - - -
16/02:00pm 20.8 S 15 21 1017.0 - 0.0 - Partly cloudy 10 - - - -
16/01:30pm 21.6 SSW 17 26 1017.2 - 0.0 - Partly cloudy 10 - - - -
16/01:27pm 21.1 SSW 16 26 1017.3 - 0.0 - Partly cloudy 10 - - - -
16/01:00pm 20.3 SSW 17 26 1017.7 - 0.0 - Partly cloudy 10 - - - -
16/12:54pm 20.6 S 16 26 1017.6 - 0.0 - Cloudy 10 - - - -
16/12:30pm 19.4 S 16 22 1017.9 - 0.0 - Cloudy 10 - - - -
16/12:00pm 19.8 S 18 23 1018.1 - 0.0 - Mostly cloudy 10 - - - -
16/11:30am 19.1 S 13 17 1018.1 - 0.0 - Cloudy 10 - - - -
16/11:00am 18.9 SSE 13 22 1018.2 - 0.0 - Cloudy 10 - - - -
16/10:50am 19.6 S 16 22 1018.0 - 0.0 - Partly cloudy 10 - - - -
16/10:30am 18.8 SSW 13 21 1018.2 - 0.0 - Cloudy 10 - - - -
16/10:00am 18.3 S 11 17 1018.2 - 0.0 - Partly cloudy 10 - - - -
16/09:47am 17.5 S 15 21 1018.2 - 0.0 - Cloudy 10 - - - -
16/09:30am 16.8 SSE 9 15 1018.2 - 0.0 - Cloudy 10 - - - -
16/09:00am 15.8 SSE 10 13 1018.0 - 0.0 - Cloudy 10 - - - -
16/08:30am 15.7 S 9 12 1017.8 - 0.0 - Partly cloudy 10 - - - -
16/08:00am 15.5 SSE 9 11 1017.5 - 0.0 - Partly cloudy 10 - - - -

Other Formats:

Comma delimited format used in spreadsheet applications
http://www.bom.gov.au/fwo/IDS60701/IDS60701.95666.axf

JavaScript Object Notation format (JSON) in row-major order
http://www.bom.gov.au/fwo/IDS60701/IDS60701.95666.json